Portada
METAR-TAF:

METAR-TAF

Aeroports :

Koumac, Nova Caledònia

latitud: 20-34S, longitud: 164-17E, altitud: 23 m

METAR: manca

Hora: 01:58 (14:58 UTC)

Pronòstic

L'informe es va fer fa 9 hores i 58 minuts, a les 05:00 UTC
Pronòstic vàlid del 25 a les 06 UTC al 26 a les 06 UTC
Vent 2 kt amb direcció variable
Visibilitat 10 km o més
Cel ennuvolat a una alçada de 6500 ft
Temporalment
l' 25 a les 06 UTC al 25 a les 08 UTC
Visibilitat: 4000 m
pluja
Temporalment
l' 25 a les 15 UTC al 25 a les 24 UTC
Visibilitat: 4000 m
Cel ennuvolat a una alçada de 1000 ft
Núvols disperses a una alçada de 2000 ft, Cumulus congestus.
xàfecs de pluja
Evolucionant progressivament
l' 25 a les 23 UTC al 26 a les 02 UTC
Vent 10 kt del Sud

TAF: NWWK 250500Z 2506/2606 VRB02KT 9999 BKN065 TEMPO 2506/2508 4000 RA TEMPO 2515/2524 4000 SHRA BKN010 SCT020TCU BECMG 2523/2602 18010KT

Observacions i pronòstics meteorològics de més de 4000 aeroports (METAR i TAF).

Les estacions disponibles són els punts grocs i vermells al mapa.

Posi el ratolí al punt desitjat per veure el nom de l'estació.

Feu clic per veure les observacions i els pronòstics meteorològics.

Per canviar el mapa: feu clic els botons verds amb una creu de color negre per apropar; al botó verd amb un guió per allunyar la imatge; o en les fletxes verdes per a mapes adjacents.


METAR-TAF: